Time;durP1;ratioP1;P1;durP2;ratioP2;P2;SDS_P1;SDS_P2;PMS_P1;PMS_P2;Temp;Humidity;BMP_temperature;BMP_pressure;BME280_temperature;BME280_humidity;BME280_pressure;Samples;Min_cycle;Max_cycle;Signal;HPM_P1;HPM_P2
2022/03/30 00:01:37;;;;;;;13.38;4.15;;;4.40;13.10;;;4.12;57.66;100226.06;4956186;29;20250;-75
2022/03/30 00:04:06;;;;;;;10.57;4.60;;;4.40;13.30;;;4.13;57.96;100222.41;4957558;29;20180;-74
2022/03/30 00:06:37;;;;;;;12.13;3.58;;;4.40;13.50;;;4.04;58.04;100226.13;4957715;29;20228;-74
2022/03/30 00:09:06;;;;;;;11.93;3.85;;;4.30;13.50;;;4.16;57.77;100228.25;4959770;28;20267;-75
2022/03/30 00:11:35;;;;;;;7.40;3.75;;;4.40;13.50;;;4.37;56.91;100223.06;4961834;29;20561;-75
2022/03/30 00:14:04;;;;;;;13.20;3.90;;;4.60;13.20;;;4.24;57.56;100222.00;4958115;29;20192;-74
2022/03/30 00:16:34;;;;;;;16.90;4.60;;;4.50;13.20;;;4.08;58.21;100217.56;4957973;29;20192;-74
2022/03/30 00:19:04;;;;;;;11.07;4.50;;;4.40;13.60;;;4.01;58.43;100223.81;4958263;28;20325;-75
2022/03/30 00:21:32;;;;;;;12.68;4.40;;;4.40;14.00;;;3.85;58.68;100214.03;4960451;29;20178;-75
2022/03/30 00:24:03;;;;;;;13.60;4.13;;;4.20;14.30;;;3.89;59.13;100213.50;4968305;29;20188;-74
2022/03/30 00:26:31;;;;;;;14.18;4.97;;;4.20;14.80;;;3.99;58.64;100215.13;4966298;29;20300;-74
2022/03/30 00:29:03;;;;;;;12.23;3.97;;;4.30;15.00;;;4.00;58.56;100208.75;4960692;29;20207;-75
2022/03/30 00:31:32;;;;;;;15.40;4.28;;;4.30;14.90;;;3.88;58.84;100206.47;4939578;29;20663;-75
2022/03/30 00:34:02;;;;;;;13.75;4.03;;;4.30;15.00;;;3.88;58.81;100225.22;4955932;29;20192;-75
2022/03/30 00:36:31;;;;;;;7.30;4.07;;;4.20;15.30;;;3.90;58.95;100207.16;4955611;29;20184;-76
2022/03/30 00:38:59;;;;;;;7.55;3.63;;;4.20;15.40;;;3.74;59.22;100222.44;4938280;29;20565;-75
2022/03/30 00:41:30;;;;;;;10.63;4.47;;;4.10;15.60;;;3.65;59.55;100221.66;4955602;29;20223;-75
2022/03/30 00:43:59;;;;;;;7.63;4.03;;;4.00;15.90;;;3.54;59.53;100219.34;4955556;29;20211;-75
2022/03/30 00:46:28;;;;;;;17.30;5.40;;;3.90;16.30;;;3.61;59.60;100223.00;4938087;29;20705;-74
2022/03/30 00:48:56;;;;;;;11.90;3.92;;;3.90;16.60;;;3.66;59.43;100220.66;4955981;29;20227;-76
2022/03/30 00:51:25;;;;;;;10.00;3.67;;;4.00;16.60;;;3.63;59.38;100212.94;4938278;29;20220;-74
2022/03/30 00:53:54;;;;;;;6.68;4.28;;;4.00;16.70;;;3.67;59.44;100216.97;4955811;29;20188;-76
2022/03/30 00:56:24;;;;;;;11.57;3.40;;;4.00;16.90;;;3.82;59.17;100217.91;4968357;29;20283;-76
2022/03/30 00:58:54;;;;;;;11.82;4.28;;;4.10;16.90;;;3.94;58.86;100208.47;4963573;29;20203;-75
2022/03/30 01:01:24;;;;;;;10.77;4.35;;;4.20;16.70;;;3.94;58.84;100203.09;4968971;28;20227;-75
2022/03/30 01:03:53;;;;;;;10.25;3.60;;;4.20;17.00;;;3.99;58.67;100212.44;4970732;29;20173;-75
2022/03/30 01:06:22;;;;;;;13.10;4.35;;;4.20;16.60;;;4.07;58.31;100204.34;4971914;29;20216;-74
2022/03/30 01:08:51;;;;;;;9.98;3.70;;;4.30;16.50;;;3.88;58.98;100206.47;4964837;28;20177;-76
2022/03/30 01:11:20;;;;;;;11.13;3.95;;;4.20;16.60;;;3.76;59.58;100202.53;4962055;28;20204;-75
2022/03/30 01:13:49;;;;;;;12.48;4.20;;;4.10;17.20;;;3.81;59.87;100197.50;4961626;29;20176;-75
2022/03/30 01:16:35;;;;;;;13.52;3.80;;;4.10;17.90;;;3.77;59.44;100201.53;4964718;29;20172;-74
2022/03/30 01:19:09;;;;;;;11.40;5.93;;;4.00;17.90;;;3.84;59.39;100196.28;4969363;28;20169;-78
2022/03/30 01:21:42;;;;;;;10.75;4.30;;;4.10;18.00;;;3.82;59.47;100199.16;4972120;29;20259;-75
2022/03/30 01:24:14;;;;;;;6.00;4.18;;;4.10;18.10;;;3.81;59.88;100194.81;4963647;29;20192;-75
2022/03/30 01:26:43;;;;;;;6.82;4.07;;;4.00;18.70;;;3.63;60.24;100199.56;4967921;29;20779;-75
2022/03/30 01:34:47;;;;;;;7.93;3.95;;;3.70;20.20;;;3.56;60.69;100195.94;4956776;29;20203;-74
2022/03/30 01:37:17;;;;;;;11.23;4.90;;;3.80;20.70;;;3.71;60.43;100198.72;4942640;29;20195;-74
2022/03/30 01:39:46;;;;;;;9.77;4.78;;;3.90;20.60;;;3.51;61.11;100187.59;4970356;28;20215;-75
2022/03/30 01:42:16;;;;;;;9.55;5.43;;;3.80;21.00;;;3.41;61.33;100186.97;4970554;29;20216;-77
2022/03/30 01:44:45;;;;;;;5.68;3.42;;;3.70;21.80;;;3.36;61.39;100175.97;4970846;29;20239;-74
2022/03/30 01:47:14;;;;;;;15.27;5.45;;;3.70;22.10;;;3.44;61.29;100178.59;4970900;29;20204;-75
2022/03/30 01:49:43;;;;;;;11.88;5.22;;;3.70;22.50;;;3.39;61.65;100175.59;4953925;29;20216;-74
2022/03/30 01:52:14;;;;;;;6.60;3.50;;;3.70;23.00;;;3.36;61.69;100175.97;4968481;29;20182;-74
2022/03/30 01:54:45;;;;;;;9.50;4.63;;;3.70;23.50;;;3.33;61.77;100168.28;4967828;29;20208;-75
2022/03/30 01:57:15;;;;;;;10.25;3.95;;;3.60;24.00;;;3.34;61.75;100173.44;4951351;29;20204;-75
2022/03/30 01:59:46;;;;;;;11.85;4.35;;;3.60;24.30;;;3.35;61.58;100175.13;4970268;28;20288;-75
2022/03/30 02:02:15;;;;;;;9.70;4.60;;;3.60;24.60;;;3.43;61.37;100172.44;4966578;29;20235;-74
2022/03/30 02:04:44;;;;;;;10.82;4.80;;;3.60;24.60;;;3.37;61.61;100166.94;4964171;29;20180;-74
2022/03/30 02:07:13;;;;;;;6.25;3.72;;;3.60;25.10;;;3.42;61.61;100165.41;4971219;29;20238;-75
2022/03/30 02:09:43;;;;;;;6.80;4.45;;;3.60;25.00;;;3.41;61.59;100166.41;4970669;28;20216;-74
2022/03/30 02:12:12;;;;;;;9.15;4.53;;;3.60;25.10;;;3.36;61.57;100159.91;4970448;29;20192;-74
2022/03/30 02:14:41;;;;;;;10.95;4.00;;;3.60;25.00;;;3.20;62.28;100159.97;4967651;29;20577;-75
2022/03/30 02:17:10;;;;;;;19.08;4.50;;;3.50;26.00;;;3.23;62.37;100159.63;4945466;29;20192;-74
2022/03/30 02:19:39;;;;;;;14.93;4.75;;;3.50;26.80;;;3.22;62.23;100160.63;4971042;28;20219;-74
2022/03/30 02:22:08;;;;;;;14.80;4.10;;;3.50;27.10;;;3.31;62.15;100157.75;4969448;28;20240;-75
2022/03/30 02:24:37;;;;;;;9.93;4.03;;;3.50;27.20;;;3.27;62.29;100153.78;4958364;29;20283;-76
2022/03/30 02:27:07;;;;;;;15.45;6.35;;;3.50;27.60;;;3.30;61.97;100156.09;4949805;29;20269;-75
2022/03/30 02:29:36;;;;;;;10.18;4.30;;;3.50;28.00;;;3.37;61.66;100156.25;4968333;28;20219;-75
2022/03/30 02:32:13;;;;;;;11.90;3.85;;;3.50;27.40;;;3.19;62.56;100147.63;4970139;29;20280;-74
2022/03/30 02:34:43;;;;;;;12.35;4.65;;;3.40;28.20;;;3.18;62.41;100151.31;4970689;29;20206;-74
2022/03/30 02:37:13;;;;;;;7.63;4.82;;;3.40;28.70;;;3.10;62.77;100154.00;4969960;29;20183;-75
2022/03/30 02:39:42;;;;;;;13.07;4.35;;;3.40;29.40;;;3.22;62.41;100157.97;4968876;28;20204;-75
2022/03/30 02:42:13;;;;;;;6.60;4.47;;;3.40;29.90;;;3.19;62.62;100152.97;4949820;29;20188;-74
2022/03/30 02:44:42;;;;;;;10.77;3.65;;;3.40;29.80;;;3.09;62.94;100150.50;4965222;29;20239;-76
2022/03/30 02:47:11;;;;;;;10.13;4.55;;;3.40;30.70;;;3.16;63.18;100147.94;4958295;29;20729;-74
2022/03/30 02:49:40;;;;;;;14.23;4.70;;;3.40;31.50;;;3.16;62.95;100158.66;4958021;28;20579;-76
2022/03/30 02:52:09;;;;;;;11.27;5.07;;;3.40;31.80;;;3.14;63.00;100155.31;4961243;29;20212;-74
2022/03/30 02:54:38;;;;;;;6.80;3.95;;;3.40;32.20;;;3.14;63.40;100155.31;4968678;29;20192;-74
2022/03/30 02:57:07;;;;;;;10.10;4.43;;;3.30;32.90;;;3.17;63.21;100154.97;4954701;29;20176;-74
2022/03/30 02:59:37;;;;;;;10.85;3.40;;;3.40;33.60;;;3.22;62.95;100161.47;4954850;28;20214;-74
2022/03/30 03:02:07;;;;;;;10.57;4.47;;;3.40;33.70;;;3.18;63.22;100157.47;4955946;29;20176;-75
2022/03/30 03:04:36;;;;;;;8.38;3.50;;;3.40;33.70;;;3.03;63.33;100152.03;4957893;29;20180;-75
2022/03/30 03:07:07;;;;;;;11.75;4.00;;;3.30;34.00;;;3.08;63.39;100159.53;4956711;29;20239;-75
2022/03/30 03:09:36;;;;;;;14.18;4.65;;;3.30;35.60;;;2.96;63.64;100147.50;4954977;28;20661;-75
2022/03/30 03:12:06;;;;;;;10.27;4.82;;;3.20;35.50;;;2.77;64.09;100147.88;4937453;29;20528;-74
2022/03/30 03:14:34;;;;;;;8.18;3.30;;;3.10;36.70;;;2.87;64.04;100149.38;4959747;29;20211;-75
2022/03/30 03:17:06;;;;;;;14.93;4.20;;;3.10;38.30;;;3.05;63.38;100146.47;4961569;29;20199;-74
2022/03/30 03:19:35;;;;;;;12.07;4.60;;;3.20;38.00;;;3.03;63.45;100144.00;4963445;28;20219;-75
2022/03/30 03:22:05;;;;;;;16.33;4.32;;;3.30;36.90;;;2.78;64.00;100145.06;4961621;29;20187;-74
2022/03/30 03:24:34;;;;;;;11.50;4.53;;;3.20;37.70;;;2.77;64.30;100142.56;4959953;29;20168;-75
2022/03/30 03:27:03;;;;;;;11.80;4.60;;;3.10;39.50;;;2.82;64.59;100140.19;4958091;29;20301;-75
2022/03/30 03:29:32;;;;;;;19.13;4.70;;;3.10;41.50;;;2.74;64.68;100146.41;4940240;29;20246;-77
2022/03/30 03:32:01;;;;;;;12.35;5.53;;;3.10;42.00;;;2.80;64.52;100137.72;4964710;28;20276;-75
2022/03/30 03:34:31;;;;;;;16.25;5.13;;;3.10;43.20;;;2.79;64.44;100137.88;4972200;29;20188;-74
2022/03/30 03:37:00;;;;;;;17.58;6.97;;;3.10;43.80;;;2.69;65.17;100143.41;4972529;29;20187;-75
2022/03/30 03:39:29;;;;;;;11.88;5.15;;;3.00;46.10;;;2.66;65.25;100133.06;4971251;28;20220;-74
2022/03/30 03:41:58;;;;;;;9.55;4.38;;;3.00;47.50;;;2.67;65.24;100142.72;4968252;29;20305;-74
2022/03/30 03:44:27;;;;;;;9.73;4.45;;;3.00;48.70;;;2.69;65.46;100146.09;4971197;29;20208;-74
2022/03/30 03:46:55;;;;;;;11.93;4.18;;;3.00;49.80;;;2.72;65.58;100139.56;4971386;29;20561;-75
2022/03/30 03:49:24;;;;;;;13.70;4.90;;;3.00;50.50;;;2.69;65.45;100138.06;4972852;28;20224;-74
2022/03/30 03:51:55;;;;;;;12.55;3.95;;;3.00;51.00;;;2.68;65.37;100136.41;4964367;29;20238;-75
2022/03/30 03:54:24;;;;;;;11.73;5.10;;;3.00;52.10;;;2.60;65.64;100137.25;4958660;29;20196;-75
2022/03/30 03:56:54;;;;;;;12.38;4.63;;;2.90;52.50;;;2.60;65.71;100141.75;4957824;29;20199;-75
2022/03/30 03:59:23;;;;;;;11.00;4.80;;;2.90;54.60;;;2.53;65.86;100144.25;4966150;28;20223;-75
2022/03/30 04:01:52;;;;;;;6.47;3.95;;;2.90;55.20;;;2.36;66.38;100145.28;4963695;29;20187;-75
2022/03/30 04:04:21;;;;;;;9.32;5.95;;;2.70;56.40;;;2.34;66.51;100149.09;4958541;29;20189;-75
2022/03/30 04:06:50;;;;;;;13.13;4.72;;;2.70;58.70;;;2.28;66.83;100152.44;4957751;29;20195;-75
2022/03/30 04:09:20;;;;;;;10.65;4.50;;;2.60;61.50;;;2.32;66.89;100148.47;4957324;28;20196;-75
2022/03/30 04:11:49;;;;;;;12.23;5.35;;;2.60;65.50;;;2.31;67.17;100152.13;4960097;29;20196;-74
2022/03/30 04:14:18;;;;;;;17.48;5.25;;;2.60;68.90;;;2.23;67.19;100149.47;4961289;29;20184;-75
2022/03/30 04:16:46;;;;;;;7.70;4.43;;;2.50;71.20;;;2.29;67.13;100146.09;4957573;29;20195;-74
2022/03/30 04:19:16;;;;;;;9.05;3.33;;;2.60;71.50;;;2.40;66.96;100143.09;4957618;28;20174;-75
2022/03/30 04:21:45;;;;;;;15.57;3.97;;;2.60;74.20;;;2.54;66.42;100153.09;4957707;29;20181;-75
2022/03/30 04:24:14;;;;;;;9.32;4.13;;;2.70;73.70;;;2.56;66.52;100140.44;4957536;29;20255;-76
2022/03/30 04:26:45;;;;;;;11.35;4.25;;;2.70;73.80;;;2.66;66.42;100143.75;4961131;29;20666;-75
2022/03/30 04:29:14;;;;;;;13.20;4.55;;;2.80;74.00;;;2.85;65.67;100130.03;5101607;23;20191;-68
2022/03/30 04:31:44;;;;;;;12.63;3.88;;;2.90;72.10;;;2.83;65.87;100129.34;4996664;28;20171;-68
2022/03/30 04:34:13;;;;;;;8.30;3.75;;;3.00;69.90;;;3.09;65.51;100125.59;4988967;28;20222;-68
2022/03/30 04:36:42;;;;;;;8.38;3.97;;;3.10;68.60;;;3.05;65.17;100122.41;4977353;28;20687;-68
2022/03/30 04:39:11;;;;;;;14.07;4.93;;;3.20;64.70;;;3.08;65.15;100123.94;4977253;28;20196;-67
2022/03/30 04:41:40;;;;;;;20.05;5.32;;;3.20;65.10;;;3.15;65.04;100124.94;4976811;28;20187;-67
2022/03/30 04:44:10;;;;;;;13.65;3.85;;;3.20;63.10;;;3.09;65.10;100125.59;5036013;23;20251;-68
2022/03/30 04:46:39;;;;;;;16.00;5.07;;;3.20;63.30;;;3.17;64.75;100123.72;4969614;28;20191;-67
2022/03/30 04:49:07;;;;;;;16.80;4.80;;;3.20;61.30;;;3.17;64.84;100128.25;4976631;28;20273;-68
2022/03/30 04:51:36;;;;;;;10.10;4.18;;;3.30;61.60;;;3.23;64.83;100128.38;4976363;28;20715;-68
2022/03/30 04:54:05;;;;;;;12.52;4.30;;;3.30;61.80;;;3.41;64.31;100126.28;4976449;28;20223;-68
2022/03/30 04:56:34;;;;;;;11.80;4.38;;;3.40;59.40;;;3.26;64.96;100138.72;4977058;28;20552;-68
2022/03/30 04:59:06;;;;;;;10.88;5.57;;;3.40;58.70;;;3.36;64.72;100133.16;4977280;28;20279;-67
2022/03/30 05:01:37;;;;;;;11.43;4.60;;;3.40;60.90;;;3.36;64.41;100125.97;4976207;28;20188;-69
2022/03/30 05:04:07;;;;;;;7.80;4.80;;;3.40;59.10;;;3.40;64.36;100137.16;4976847;28;20215;-69
2022/03/30 05:06:36;;;;;;;10.52;4.53;;;3.40;58.70;;;3.43;64.31;100124.28;4978605;28;20194;-68
2022/03/30 05:09:05;;;;;;;10.88;5.18;;;3.50;57.80;;;3.39;64.52;100127.47;4977158;28;20250;-68
2022/03/30 05:11:33;;;;;;;12.55;4.28;;;3.50;57.50;;;3.55;63.83;100131.91;4976670;28;20196;-68
2022/03/30 05:14:02;;;;;;;10.45;3.60;;;3.60;55.80;;;3.62;63.72;100128.38;4977831;28;20217;-68
2022/03/30 05:16:31;;;;;;;12.65;4.30;;;3.70;54.50;;;3.62;63.28;100128.38;4977272;28;20184;-69
2022/03/30 05:19:01;;;;;;;12.50;4.28;;;3.70;52.60;;;3.58;63.63;100121.72;4975391;28;20203;-68
2022/03/30 05:21:32;;;;;;;10.48;4.57;;;3.70;52.10;;;3.59;63.80;100128.69;4975502;28;20174;-68
2022/03/30 05:24:01;;;;;;;10.80;4.82;;;3.70;52.60;;;3.67;63.48;100126.00;4975363;28;20708;-69
2022/03/30 05:26:29;;;;;;;15.10;4.85;;;3.70;52.70;;;3.84;63.16;100132.06;4975558;28;20196;-68
2022/03/30 05:28:58;;;;;;;21.02;4.68;;;3.80;52.20;;;3.93;62.79;100128.31;4975288;28;20261;-68
2022/03/30 05:31:27;;;;;;;14.07;5.18;;;3.90;50.50;;;4.02;62.73;100127.25;4976339;28;20198;-68
2022/03/30 05:33:56;;;;;;;20.90;5.55;;;4.00;49.90;;;3.94;62.48;100122.81;4990670;28;20313;-68
2022/03/30 05:36:26;;;;;;;17.58;6.25;;;4.00;47.90;;;4.10;61.91;100124.53;4984422;28;20175;-67
2022/03/30 05:38:55;;;;;;;24.50;5.72;;;4.10;47.30;;;4.10;61.86;100131.72;4994763;28;20178;-68
2022/03/30 05:41:24;;;;;;;10.73;5.65;;;4.10;45.10;;;4.12;61.64;100132.38;4994548;28;20183;-68
2022/03/30 05:43:53;;;;;;;15.00;5.07;;;4.20;44.60;;;4.17;62.24;100128.13;4994257;28;20265;-68
2022/03/30 05:46:21;;;;;;;12.60;5.18;;;4.20;45.60;;;4.43;61.58;100129.59;4994881;28;20179;-69
2022/03/30 05:48:52;;;;;;;12.18;4.45;;;4.30;45.60;;;4.41;61.27;100135.13;4994135;28;20237;-68
2022/03/30 05:51:21;;;;;;;14.25;4.88;;;4.30;44.20;;;4.35;60.69;100125.16;4993954;28;20190;-68
2022/03/30 05:53:51;;;;;;;15.55;5.45;;;4.30;40.80;;;4.59;60.23;100122.25;4994186;28;20260;-70
2022/03/30 05:57:00;;;;;;;9.52;5.05;;;4.50;39.50;;;4.59;60.36;100124.09;4993780;28;20183;-67
2022/03/30 05:59:11;;;;;;;16.55;5.30;;;4.50;38.90;;;4.76;59.99;100123.75;4994362;28;20190;-68
2022/03/30 06:01:40;;;;;;;10.68;4.07;;;4.60;38.00;;;5.07;59.34;100126.28;4993965;28;20233;-67
2022/03/30 06:04:09;;;;;;;15.18;4.18;;;4.80;37.10;;;4.99;58.85;100122.84;4993889;28;20211;-68
2022/03/30 06:06:38;;;;;;;9.55;3.67;;;4.80;34.00;;;5.00;59.03;100113.78;4993873;28;20186;-67
2022/03/30 06:09:08;;;;;;;14.85;5.45;;;4.90;33.50;;;5.04;58.30;100120.44;4993875;28;20211;-68
2022/03/30 06:11:37;;;;;;;28.05;17.52;;;4.90;31.70;;;4.77;58.63;100124.59;4993886;28;20171;-68
2022/03/30 06:14:06;;;;;;;13.25;7.55;;;4.80;30.50;;;4.86;58.73;100114.59;4977311;28;20218;-68
2022/03/30 06:16:35;;;;;;;18.58;13.23;;;4.80;30.80;;;5.03;58.38;100121.47;4994901;28;20170;-68
2022/03/30 06:19:05;;;;;;;14.18;11.05;;;4.90;30.90;;;5.16;58.06;100116.28;4994980;28;20242;-67
2022/03/30 06:21:34;;;;;;;11.40;5.43;;;5.00;30.10;;;5.31;57.63;100110.91;4995079;28;20218;-69
2022/03/30 06:24:03;;;;;;;9.52;4.43;;;5.10;28.90;;;5.41;57.54;100109.59;4995071;28;20238;-67
2022/03/30 06:26:33;;;;;;;10.38;3.75;;;5.20;29.20;;;5.56;57.23;100110.41;4994726;28;20275;-68
2022/03/30 06:29:02;;;;;;;6.72;3.40;;;5.30;29.10;;;5.60;56.49;100108.16;4993768;28;20182;-69
2022/03/30 06:31:31;;;;;;;14.10;3.47;;;5.40;27.70;;;5.67;56.24;100107.19;4993549;28;20210;-67
2022/03/30 06:34:00;;;;;;;14.93;3.92;;;5.60;26.90;;;5.65;55.98;100111.94;4993133;28;20213;-68
2022/03/30 06:36:30;;;;;;;9.93;2.83;;;5.60;25.40;;;5.63;55.77;100108.59;4993102;28;20179;-68
2022/03/30 06:38:59;;;;;;;15.80;4.82;;;5.70;24.80;;;5.70;56.45;100108.69;4993019;28;20588;-68
2022/03/30 06:41:28;;;;;;;33.10;19.92;;;5.60;25.30;;;5.91;55.95;100102.53;4992941;28;20186;-69
2022/03/30 06:43:59;;;;;;;36.88;24.65;;;5.70;25.20;;;6.01;56.06;100103.03;4992573;28;20215;-67
2022/03/30 06:46:29;;;;;;;15.95;9.63;;;5.80;24.70;;;6.07;55.92;100102.28;4992924;28;20605;-68
2022/03/30 06:48:58;;;;;;;10.88;3.53;;;5.80;24.50;;;5.96;56.04;100100.09;4992975;28;20175;-68
2022/03/30 06:51:27;;;;;;;11.05;4.00;;;5.70;24.40;;;5.96;56.16;100105.47;4993524;28;20253;-68
2022/03/30 06:53:55;;;;;;;9.30;4.13;;;5.70;25.00;;;6.28;55.77;100102.28;4993073;28;20221;-69
2022/03/30 06:56:25;;;;;;;9.07;3.92;;;5.90;24.60;;;6.58;54.63;100107.47;4993273;28;20207;-67
2022/03/30 06:58:54;;;;;;;15.27;4.97;;;6.10;23.80;;;6.77;53.95;100109.47;4993490;28;20179;-68
2022/03/30 07:01:24;;;;;;;13.98;4.68;;;6.30;22.70;;;6.70;54.26;100108.59;4993007;28;20694;-67
2022/03/30 07:03:54;;;;;;;10.90;3.45;;;6.20;23.10;;;6.95;53.37;100101.72;4992901;28;20241;-67
2022/03/30 07:06:23;;;;;;;12.23;3.65;;;6.50;22.10;;;7.02;53.25;100096.41;4992933;28;20194;-68
2022/03/30 07:11:38;;;;;;;17.10;5.30;;;6.50;21.70;;;6.96;53.88;100089.94;4993244;28;20175;-68
2022/03/30 07:14:07;;;;;;;11.50;7.38;;;6.60;21.00;;;6.88;53.96;100090.91;4992600;28;20642;-68
2022/03/30 07:16:37;;;;;;;14.30;5.00;;;6.50;21.10;;;6.98;53.51;100091.41;4994203;28;20247;-68
2022/03/30 07:19:06;;;;;;;9.65;4.03;;;6.60;21.20;;;6.92;53.97;100092.19;5002206;28;20199;-68
2022/03/30 07:21:35;;;;;;;11.00;4.18;;;6.60;21.10;;;7.08;53.63;100090.19;5001570;28;20193;-68
2022/03/30 07:24:04;;;;;;;8.02;3.15;;;6.70;21.00;;;7.09;53.19;100081.94;5001203;28;20238;-67
2022/03/30 07:26:32;;;;;;;13.60;4.43;;;6.70;20.10;;;6.88;53.74;100090.09;4999972;28;20278;-68
2022/03/30 07:29:02;;;;;;;14.45;6.53;;;6.70;20.10;;;7.13;53.46;100085.06;4995248;28;20679;-66
2022/03/30 07:31:31;;;;;;;8.15;3.80;;;6.80;20.30;;;7.25;52.67;100086.16;4992539;28;20213;-67
2022/03/30 07:34:01;;;;;;;16.80;3.80;;;7.00;19.00;;;7.27;52.64;100082.22;4993088;28;20238;-67
2022/03/30 07:36:30;;;;;;;16.63;4.40;;;7.10;19.00;;;7.32;52.94;100087.00;4992754;28;20190;-67
2022/03/30 07:38:59;;;;;;;11.90;4.00;;;7.20;18.60;;;7.17;52.71;100089.84;4989404;28;20493;-67
2022/03/30 07:41:28;;;;;;;17.05;3.60;;;7.20;17.70;;;7.20;52.75;100089.47;4976399;28;20180;-67
2022/03/30 07:43:57;;;;;;;18.55;4.97;;;7.20;17.70;;;7.45;52.30;100088.94;4973212;28;20265;-66
2022/03/30 07:46:26;;;;;;;9.23;3.67;;;7.20;17.90;;;7.48;52.16;100097.44;4974127;28;20187;-67
2022/03/30 07:48:55;;;;;;;13.23;4.40;;;7.30;17.40;;;7.63;51.71;100090.03;4977279;28;20259;-66
2022/03/30 07:51:25;;;;;;;10.10;4.18;;;7.30;17.00;;;7.68;51.24;100097.50;4979742;28;20215;-67
2022/03/30 07:53:54;;;;;;;18.17;4.55;;;7.40;16.50;;;7.91;51.25;100089.88;4989934;28;20242;-68
2022/03/30 07:56:23;;;;;;;9.23;4.20;;;7.50;16.70;;;8.06;50.66;100093.25;4992469;28;20198;-68
2022/03/30 07:58:53;;;;;;;14.43;4.05;;;7.70;15.80;;;8.02;50.76;100091.16;4992267;28;20214;-68
2022/03/30 08:01:22;;;;;;;10.30;3.80;;;7.60;15.60;;;8.08;50.53;100083.09;4981313;28;20198;-67
2022/03/30 08:03:51;;;;;;;14.07;5.82;;;7.70;15.60;;;8.37;50.10;100086.47;4981632;28;20211;-67
2022/03/30 08:06:20;;;;;;;9.52;4.20;;;8.00;14.20;;;8.53;49.01;100080.63;4977772;28;20188;-67
2022/03/30 08:08:50;;;;;;;12.25;4.68;;;8.20;12.70;;;8.62;49.15;100084.75;4984105;28;20187;-68
2022/03/30 08:11:19;;;;;;;19.67;6.95;;;8.20;12.80;;;8.87;48.74;100079.53;4972869;28;20200;-68
2022/03/30 08:13:48;;;;;;;8.07;3.03;;;8.30;12.60;;;8.99;47.67;100085.97;4980829;28;20215;-68
2022/03/30 08:16:17;;;;;;;15.25;5.70;;;8.40;11.40;;;9.29;46.27;100081.72;4994514;28;20660;-67
2022/03/30 08:18:46;;;;;;;15.20;4.40;;;8.80;10.00;;;9.08;46.51;100074.72;4994001;28;20187;-67
2022/03/30 08:24:06;;;;;;;9.55;3.28;;;9.20;7.50;;;9.24;46.99;100078.00;4996172;28;20206;-68
2022/03/30 08:26:37;;;;;;;13.48;4.28;;;9.00;8.10;;;9.28;46.59;100073.84;4995779;28;20254;-66
2022/03/30 08:29:08;;;;;;;10.30;4.55;;;9.00;8.10;;;9.22;46.54;100080.06;4972380;28;20316;-67
2022/03/30 08:31:55;;;;;;;6.75;3.15;;;8.90;7.80;;;8.94;46.08;100077.69;4976641;28;20204;-68
2022/03/30 08:34:25;;;;;;;14.15;5.10;;;8.70;7.50;;;8.96;45.88;100080.97;4976312;28;20266;-67
2022/03/30 08:36:53;;;;;;;12.45;5.68;;;8.70;6.60;;;8.96;46.28;100081.81;4975604;28;20795;-68
2022/03/30 08:39:23;;;;;;;12.65;4.25;;;8.70;6.70;;;9.14;45.66;100081.97;4975901;28;20278;-68
2022/03/30 08:41:52;;;;;;;10.57;4.10;;;8.80;6.50;;;9.33;45.48;100087.53;4976235;28;20175;-68
2022/03/30 08:44:21;;;;;;;8.73;3.75;;;8.90;6.30;;;9.59;45.61;100081.97;4975679;28;20219;-68
2022/03/30 08:46:51;;;;;;;8.85;4.00;;;9.00;6.30;;;9.81;43.87;100079.81;4975877;28;20300;-68
2022/03/30 08:49:20;;;;;;;13.80;4.63;;;9.40;4.70;;;9.75;43.98;100076.09;4975974;28;20184;-68
2022/03/30 08:51:50;;;;;;;9.82;3.60;;;9.30;4.30;;;9.57;44.04;100076.00;4975492;28;20425;-67
2022/03/30 08:54:20;;;;;;;11.50;4.10;;;9.50;3.60;;;9.72;43.08;100075.72;4975714;28;20221;-68
2022/03/30 08:56:51;;;;;;;14.80;4.27;;;9.40;3.10;;;9.84;42.14;100073.97;4975371;28;20525;-69
2022/03/30 08:59:23;;;;;;;9.25;2.13;;;9.60;1.40;;;9.55;42.44;100072.66;4975368;28;20423;-68
2022/03/30 09:01:55;;;;;;;9.15;3.13;;;9.40;1.20;;;9.58;42.70;100069.56;4975314;28;20179;-69
2022/03/30 09:04:25;;;;;;;8.18;3.00;;;9.30;1.30;;;10.02;42.68;100071.38;4975005;28;20265;-68
2022/03/30 09:06:57;;;;;;;10.37;2.93;;;9.50;2.30;;;10.37;42.24;100074.44;4975111;28;20176;-68
2022/03/30 09:09:32;;;;;;;6.13;3.23;;;9.80;1.90;;;10.61;41.38;100067.38;4974929;28;20521;-68
2022/03/30 09:12:09;;;;;;;8.53;2.63;;;10.00;1.00;;;10.40;41.74;100071.31;4975139;28;20458;-68
2022/03/30 09:14:39;;;;;;;8.87;2.33;;;10.20;1.00;;;10.02;41.69;100065.97;4975349;28;20446;-67
2022/03/30 09:17:11;;;;;;;8.43;2.97;;;10.10;1.00;;;9.59;42.89;100065.78;4975100;28;20806;-68
2022/03/30 09:19:40;;;;;;;8.40;3.67;;;9.60;1.00;;;9.85;42.85;100060.25;4975379;28;20218;-67
2022/03/30 09:22:11;;;;;;;4.10;2.35;;;9.40;1.20;;;10.33;40.98;100065.13;4975332;28;20419;-67
2022/03/30 09:24:41;;;;;;;9.63;2.80;;;9.80;1.00;;;10.22;41.33;100057.72;4975275;28;20581;-68
2022/03/30 09:27:12;;;;;;;8.47;2.57;;;9.80;1.00;;;10.19;40.95;100061.69;4974978;28;20192;-67
2022/03/30 09:29:41;;;;;;;13.57;3.13;;;9.80;1.00;;;10.69;40.46;100062.50;4978168;28;20462;-67
2022/03/30 09:32:26;;;;;;;8.82;3.00;;;10.10;1.00;;;10.64;40.34;100062.34;4973957;28;20451;-69
2022/03/30 09:34:56;;;;;;;10.43;4.97;;;10.40;1.00;;;10.33;40.85;100051.59;4973773;28;20303;-67
2022/03/30 09:37:25;;;;;;;13.07;3.40;;;10.30;1.00;;;10.33;40.89;100052.44;4976994;28;20525;-67
2022/03/30 09:39:54;;;;;;;13.57;3.73;;;10.00;1.00;;;9.94;41.19;100045.41;4975223;28;20415;-68
2022/03/30 09:42:29;;;;;;;7.82;2.75;;;9.70;1.00;;;10.04;40.75;100043.06;4975048;28;20447;-67
2022/03/30 09:45:02;;;;;;;7.25;2.25;;;9.90;1.00;;;10.35;40.48;100054.91;4976186;28;20195;-66
2022/03/30 09:47:39;;;;;;;8.82;2.90;;;10.20;1.00;;;10.15;40.95;100048.81;4978939;28;20230;-69
2022/03/30 09:50:13;;;;;;;13.60;7.67;;;10.00;1.00;;;10.58;40.38;100055.13;4996194;28;20313;-68
2022/03/30 09:52:43;;;;;;;7.77;5.80;;;10.10;1.00;;;10.67;39.48;100044.84;4996464;28;20548;-66
2022/03/30 09:55:13;;;;;;;7.00;2.80;;;10.30;1.00;;;10.84;39.12;100045.94;4997548;28;20892;-66
2022/03/30 09:57:44;;;;;;;8.43;1.92;;;10.50;1.00;;;10.93;39.08;100051.88;4997657;28;20437;-70
2022/03/30 10:00:15;;;;;;;10.10;2.53;;;10.50;1.00;;;10.89;39.00;100043.38;4997743;28;20189;-68
2022/03/30 10:02:48;;;;;;;11.00;3.38;;;10.70;1.00;;;10.51;39.96;100045.41;4996354;28;21004;-68
2022/03/30 10:05:21;;;;;;;10.90;2.70;;;10.40;1.00;;;10.78;39.20;100041.41;4995137;28;20826;-68
2022/03/30 10:07:54;;;;;;;7.77;2.63;;;10.50;1.00;;;10.22;40.15;100038.78;4994636;28;20421;-69
2022/03/30 10:10:24;;;;;;;6.90;2.80;;;10.20;1.00;;;10.66;39.64;100033.19;4994554;28;20426;-67
2022/03/30 10:12:55;;;;;;;7.83;2.30;;;10.40;1.00;;;10.18;40.30;100037.56;4994316;28;20473;-67
2022/03/30 10:15:26;;;;;;;4.77;2.53;;;10.30;1.00;;;10.25;40.40;100032.94;4976777;28;20477;-68
2022/03/30 10:17:56;;;;;;;6.57;3.27;;;10.20;1.00;;;10.44;40.31;100031.94;4994667;28;20501;-66
2022/03/30 10:20:25;;;;;;;11.10;2.80;;;10.30;1.00;;;10.67;39.63;100024.03;4994295;28;20452;-66
2022/03/30 10:23:27;;;;;;;6.47;3.13;;;10.40;1.00;;;10.65;39.39;100017.19;4994650;28;21028;-67
2022/03/30 10:26:14;;;;;;;5.07;2.60;;;10.30;1.00;;;10.38;40.03;100019.31;4994446;28;20781;-67
2022/03/30 10:28:58;;;;;;;7.50;4.00;;;10.40;1.00;;;10.14;40.28;100028.22;4994682;28;20445;-68
2022/03/30 10:31:30;;;;;;;8.80;2.87;;;10.40;1.00;;;10.08;40.51;100018.28;4994113;28;20454;-67
2022/03/30 10:34:26;;;;;;;9.33;2.43;;;10.10;1.00;;;10.51;39.61;100018.34;4993826;28;20856;-67
2022/03/30 10:37:09;;;;;;;10.48;2.67;;;10.10;1.00;;;10.49;39.07;100013.19;4977945;28;20529;-68
2022/03/30 10:40:05;;;;;;;6.70;2.97;;;10.30;1.00;;;10.31;39.00;100011.25;4975485;28;20638;-69
2022/03/30 10:43:02;;;;;;;11.30;4.60;;;10.20;1.00;;;10.92;38.53;100010.44;4974535;28;20480;-69
2022/03/30 10:45:52;;;;;;;9.33;2.47;;;10.30;1.00;;;10.85;38.67;100010.50;4958857;23;20598;-74